createdAt,value
2022-08-06T00:00:06.372Z,3.85
2022-08-06T00:02:41.951Z,3.28
2022-08-06T00:05:18.328Z,3.10
2022-08-06T00:07:58.371Z,3.60
2022-08-06T00:10:29.118Z,3.78
2022-08-06T00:13:02.027Z,3.08
2022-08-06T00:16:06.249Z,3.15
2022-08-06T00:18:25.128Z,3.63
2022-08-06T00:20:55.382Z,3.38
2022-08-06T00:23:26.442Z,2.85
2022-08-06T00:25:56.578Z,2.55
2022-08-06T00:28:30.891Z,4.45
2022-08-06T00:31:06.407Z,3.93
2022-08-06T00:33:49.803Z,3.22
2022-08-06T00:36:29.533Z,3.85
2022-08-06T00:39:06.144Z,3.53
2022-08-06T00:41:42.254Z,3.60
2022-08-06T00:44:23.190Z,3.50
2022-08-06T00:47:01.652Z,3.15
2022-08-06T00:49:48.876Z,3.03
2022-08-06T00:52:20.517Z,4.00
2022-08-06T00:54:51.554Z,3.35
2022-08-06T00:57:22.748Z,3.20
2022-08-06T00:59:57.020Z,4.35
2022-08-06T01:02:27.285Z,3.92
2022-08-06T01:05:07.195Z,4.32
2022-08-06T01:07:51.895Z,3.88
2022-08-06T01:10:30.766Z,3.60
2022-08-06T01:13:04.622Z,3.60
2022-08-06T01:16:29.403Z,3.55
2022-08-06T01:19:50.573Z,2.50
2022-08-06T01:22:30.910Z,2.80
2022-08-06T01:25:24.114Z,2.92
2022-08-06T01:28:07.051Z,2.65
2022-08-06T01:30:45.864Z,3.00
2022-08-06T01:33:31.891Z,2.00
2022-08-06T01:36:20.521Z,2.60
2022-08-06T01:39:01.634Z,2.80
2022-08-06T01:41:58.597Z,2.28
2022-08-06T01:44:44.217Z,2.40
2022-08-06T01:47:18.129Z,2.35
2022-08-06T01:50:02.188Z,1.92
2022-08-06T01:52:59.828Z,1.95
2022-08-06T01:55:58.614Z,1.73
2022-08-06T01:58:34.459Z,1.88
2022-08-06T02:01:08.412Z,1.50
2022-08-06T02:03:53.183Z,1.60
2022-08-06T02:06:34.199Z,1.05
2022-08-06T02:09:22.824Z,1.10
2022-08-06T02:12:06.500Z,0.88
2022-08-06T02:15:03.801Z,1.10
2022-08-06T02:18:04.544Z,0.70
2022-08-06T02:20:48.397Z,0.70
2022-08-06T02:23:33.133Z,0.80
2022-08-06T02:26:05.924Z,0.70
2022-08-06T02:28:39.187Z,0.88
2022-08-06T02:31:09.853Z,0.70
2022-08-06T02:34:02.939Z,0.50
2022-08-06T02:37:12.576Z,0.82
2022-08-06T02:39:57.194Z,1.00
2022-08-06T02:42:53.765Z,0.80
2022-08-06T02:45:39.618Z,0.85
2022-08-06T02:48:31.857Z,1.27
2022-08-06T02:51:29.626Z,0.77
2022-08-06T02:54:07.314Z,0.77
2022-08-06T02:56:45.699Z,1.00
2022-08-06T02:59:22.897Z,0.90
2022-08-06T03:01:57.769Z,0.80
2022-08-06T03:04:32.874Z,0.80
2022-08-06T03:07:26.317Z,0.47
2022-08-06T03:10:00.284Z,0.60
2022-08-06T03:12:31.730Z,0.55
2022-08-06T03:15:10.927Z,0.70
2022-08-06T03:17:46.125Z,0.52
2022-08-06T03:20:25.518Z,0.50
2022-08-06T03:23:01.633Z,0.70
2022-08-06T03:25:33.705Z,0.50
2022-08-06T03:28:22.401Z,0.60
2022-08-06T03:30:55.918Z,0.70
2022-08-06T03:33:41.915Z,0.60
2022-08-06T03:36:18.922Z,0.60
2022-08-06T03:38:58.208Z,0.40
2022-08-06T03:41:34.751Z,0.45
2022-08-06T03:44:11.822Z,0.60
2022-08-06T03:47:01.997Z,0.70
2022-08-06T03:49:41.403Z,0.50
2022-08-06T03:52:16.482Z,0.28
2022-08-06T03:54:51.367Z,0.80
2022-08-06T03:57:29.242Z,0.35
2022-08-06T04:00:02.552Z,0.32
2022-08-06T04:02:45.786Z,0.60
2022-08-06T04:05:29.170Z,0.32
2022-08-06T04:08:06.702Z,0.45
2022-08-06T04:10:57.344Z,0.50
2022-08-06T04:14:04.973Z,0.60
2022-08-06T04:16:33.120Z,0.60
2022-08-06T04:19:08.664Z,0.38
2022-08-06T04:22:57.880Z,0.40
2022-08-06T04:24:32.338Z,0.52
2022-08-06T04:27:09.371Z,0.40
2022-08-06T04:29:56.114Z,0.50
2022-08-06T04:32:31.897Z,0.50
2022-08-06T04:36:05.195Z,0.32
2022-08-06T04:38:00.878Z,0.80
2022-08-06T04:40:35.771Z,0.43
2022-08-06T04:43:12.420Z,0.43
2022-08-06T04:46:17.921Z,0.40
2022-08-06T04:48:39.964Z,0.32
2022-08-06T04:51:17.427Z,0.50
2022-08-06T04:54:00.795Z,0.70
2022-08-06T04:56:37.095Z,0.35
2022-08-06T04:59:08.332Z,0.32
2022-08-06T05:01:40.678Z,0.30
2022-08-06T05:04:25.169Z,0.95
2022-08-06T05:07:51.897Z,0.50
2022-08-06T05:10:28.919Z,0.30
2022-08-06T05:12:59.303Z,0.30
2022-08-06T05:15:38.046Z,0.40
2022-08-06T05:19:15.938Z,0.30
2022-08-06T05:21:12.202Z,0.60
2022-08-06T05:23:49.352Z,0.20
2022-08-06T05:26:26.056Z,0.30
2022-08-06T05:28:57.106Z,0.35
2022-08-06T05:31:38.777Z,0.30
2022-08-06T05:34:13.281Z,0.40
2022-08-06T05:36:43.956Z,0.32
2022-08-06T05:39:57.140Z,0.57
2022-08-06T05:42:04.694Z,0.45
2022-08-06T05:44:34.880Z,0.63
2022-08-06T05:47:20.350Z,0.40
2022-08-06T05:50:09.674Z,0.50
2022-08-06T05:53:00.124Z,0.88
2022-08-06T05:55:40.715Z,0.30
2022-08-06T05:58:35.580Z,0.47
2022-08-06T06:01:12.443Z,0.57
2022-08-06T06:03:44.854Z,0.43
2022-08-06T06:06:19.273Z,0.40
2022-08-06T06:08:57.649Z,0.50
2022-08-06T06:11:46.900Z,0.40
2022-08-06T06:14:32.689Z,0.40
2022-08-06T06:17:28.063Z,0.47
2022-08-06T06:20:58.387Z,0.50
2022-08-06T06:23:35.210Z,0.30
2022-08-06T06:26:33.610Z,0.32
2022-08-06T06:30:02.575Z,0.43
2022-08-06T06:32:31.886Z,0.57
2022-08-06T06:35:33.998Z,0.40
2022-08-06T06:38:14.028Z,0.50
2022-08-06T06:41:03.001Z,0.50
2022-08-06T06:43:54.641Z,0.32
2022-08-06T06:46:40.895Z,0.30
2022-08-06T06:49:59.401Z,0.40
2022-08-06T06:52:13.402Z,0.38
2022-08-06T06:54:59.953Z,0.47
2022-08-06T06:57:43.102Z,0.55
2022-08-06T07:00:43.764Z,0.50
2022-08-06T07:03:09.620Z,0.20
2022-08-06T07:06:05.445Z,0.30
2022-08-06T07:08:46.857Z,0.40
2022-08-06T07:11:26.542Z,0.50
2022-08-06T07:13:59.955Z,0.30
2022-08-06T07:16:35.281Z,0.50
2022-08-06T07:19:10.854Z,0.57
2022-08-06T07:21:51.583Z,0.50
2022-08-06T07:24:38.160Z,0.50
2022-08-06T07:27:15.646Z,0.40
2022-08-06T07:29:50.000Z,0.50
2022-08-06T07:32:33.819Z,0.47
2022-08-06T07:35:12.060Z,0.57
2022-08-06T07:37:57.367Z,0.57
2022-08-06T07:40:32.038Z,0.50
2022-08-06T07:43:23.938Z,0.70
2022-08-06T07:45:59.436Z,0.40
2022-08-06T07:48:34.313Z,0.60
2022-08-06T07:51:07.888Z,0.50
2022-08-06T07:53:52.253Z,0.40
2022-08-06T07:56:29.543Z,0.60
2022-08-06T07:59:01.456Z,0.40
2022-08-06T08:01:36.680Z,0.40
2022-08-06T08:04:34.257Z,0.40
2022-08-06T08:07:09.671Z,0.45
2022-08-06T08:10:03.054Z,0.60
2022-08-06T08:12:37.572Z,0.40
2022-08-06T08:15:17.547Z,0.68
2022-08-06T08:17:57.461Z,0.40
2022-08-06T08:20:34.646Z,0.40
2022-08-06T08:23:08.481Z,0.50
2022-08-06T08:25:58.705Z,0.38
2022-08-06T08:28:30.312Z,0.50
2022-08-06T08:31:15.449Z,0.40
2022-08-06T08:33:51.255Z,0.52
2022-08-06T08:36:30.586Z,0.52
2022-08-06T08:39:06.101Z,0.43
2022-08-06T08:41:50.301Z,0.50
2022-08-06T08:44:27.185Z,0.30
2022-08-06T08:47:00.125Z,0.50
2022-08-06T08:49:48.600Z,0.43
2022-08-06T08:52:25.851Z,0.40
2022-08-06T08:55:00.129Z,0.43
2022-08-06T08:58:39.620Z,0.50
2022-08-06T09:00:22.774Z,0.50
2022-08-06T09:02:59.352Z,0.68
2022-08-06T09:05:34.589Z,0.45
2022-08-06T09:08:06.514Z,0.90
2022-08-06T09:10:52.140Z,0.60
2022-08-06T09:13:32.019Z,0.70
2022-08-06T09:16:19.223Z,0.60
2022-08-06T09:18:50.023Z,0.40
2022-08-06T09:21:21.185Z,0.65
2022-08-06T09:23:58.482Z,0.55
2022-08-06T09:26:51.632Z,0.88
2022-08-06T09:29:33.532Z,0.65
2022-08-06T09:32:15.527Z,0.52
2022-08-06T09:34:50.739Z,0.55
2022-08-06T09:37:30.342Z,0.50
2022-08-06T09:40:21.027Z,0.80
2022-08-06T09:42:54.160Z,0.65
2022-08-06T09:45:42.849Z,0.70
2022-08-06T09:48:17.441Z,0.70
2022-08-06T09:50:52.733Z,0.55
2022-08-06T09:53:23.937Z,0.55
2022-08-06T09:55:57.500Z,0.77
2022-08-06T09:58:29.835Z,0.50
2022-08-06T10:01:21.194Z,0.70
2022-08-06T10:04:05.703Z,0.60
2022-08-06T10:06:58.274Z,0.70
2022-08-06T10:09:44.260Z,0.50
2022-08-06T10:12:20.683Z,0.50
2022-08-06T10:14:56.942Z,0.68
2022-08-06T10:17:49.357Z,0.60
2022-08-06T10:20:19.714Z,0.60
2022-08-06T10:23:00.749Z,0.60
2022-08-06T10:25:38.482Z,0.70
2022-08-06T10:28:17.673Z,0.65
2022-08-06T10:30:48.274Z,0.73
2022-08-06T10:33:22.734Z,0.55
2022-08-06T10:36:09.323Z,0.50
2022-08-06T10:38:45.771Z,0.57
2022-08-06T10:42:00.046Z,0.60
2022-08-06T10:44:13.975Z,0.40
2022-08-06T10:46:47.201Z,0.60
2022-08-06T10:50:30.482Z,0.77
2022-08-06T10:52:11.154Z,0.80
2022-08-06T10:54:51.354Z,0.70
2022-08-06T10:57:36.183Z,0.55
2022-08-06T11:00:08.433Z,0.73
2022-08-06T11:02:59.136Z,0.50
2022-08-06T11:05:53.079Z,0.60
2022-08-06T11:08:59.084Z,0.50
2022-08-06T11:11:39.419Z,0.40
2022-08-06T11:14:14.790Z,0.68
2022-08-06T11:17:00.006Z,0.65
2022-08-06T11:19:46.917Z,0.32
2022-08-06T11:22:54.104Z,0.40
2022-08-06T11:25:41.486Z,0.57
2022-08-06T11:28:14.336Z,0.65
2022-08-06T11:30:51.851Z,0.50
2022-08-06T11:33:38.635Z,6.82
2022-08-06T11:36:12.005Z,2.35
2022-08-06T11:38:51.032Z,1.30
2022-08-06T11:41:51.526Z,2.00
2022-08-06T11:44:35.781Z,0.98
2022-08-06T11:47:30.626Z,1.42
2022-08-06T11:50:27.202Z,0.85
2022-08-06T11:52:58.053Z,0.82
2022-08-06T11:55:29.368Z,0.40
2022-08-06T11:58:22.962Z,0.50
2022-08-06T12:01:03.569Z,1.60
2022-08-06T12:03:53.028Z,0.70
2022-08-06T12:06:25.899Z,0.40
2022-08-06T12:09:35.846Z,0.32
2022-08-06T12:12:26.554Z,0.50
2022-08-06T12:15:02.169Z,0.60
2022-08-06T12:17:45.614Z,0.70
2022-08-06T12:20:40.611Z,1.10
2022-08-06T12:23:17.868Z,0.68
2022-08-06T12:25:49.417Z,0.57
2022-08-06T12:28:20.589Z,0.50
2022-08-06T12:30:52.699Z,0.85
2022-08-06T12:33:24.539Z,0.60
2022-08-06T12:35:58.359Z,0.50
2022-08-06T12:38:31.102Z,1.00
2022-08-06T12:41:10.497Z,0.60
2022-08-06T12:43:57.427Z,0.68
2022-08-06T12:46:29.091Z,0.50
2022-08-06T12:49:03.570Z,0.40
2022-08-06T12:51:34.332Z,0.40
2022-08-06T12:54:07.257Z,0.80
2022-08-06T12:56:40.157Z,0.40
2022-08-06T12:59:22.628Z,0.77
2022-08-06T13:02:11.961Z,0.75
2022-08-06T13:04:51.166Z,0.68
2022-08-06T13:10:35.300Z,0.38
2022-08-06T13:14:02.191Z,0.60
2022-08-06T13:15:46.254Z,0.55
2022-08-06T13:18:41.661Z,0.60
2022-08-06T13:21:33.761Z,0.93
2022-08-06T13:24:25.979Z,0.47
2022-08-06T13:27:02.673Z,0.40
2022-08-06T13:30:35.202Z,1.20
2022-08-06T13:32:33.494Z,0.82
2022-08-06T13:35:17.950Z,0.73
2022-08-06T13:38:01.437Z,0.70
2022-08-06T13:40:51.948Z,0.60
2022-08-06T13:43:53.351Z,0.60
2022-08-06T13:46:29.495Z,0.40
2022-08-06T13:49:04.503Z,1.15
2022-08-06T13:51:49.031Z,1.20
2022-08-06T13:54:25.992Z,0.60
2022-08-06T13:56:57.408Z,0.47
2022-08-06T13:59:40.337Z,0.65
2022-08-06T14:02:13.098Z,1.15
2022-08-06T14:04:50.216Z,0.70
2022-08-06T14:07:21.295Z,0.63
2022-08-06T14:10:08.701Z,0.52
2022-08-06T14:12:40.628Z,0.60
2022-08-06T14:15:13.039Z,0.52
2022-08-06T14:17:45.888Z,0.40
2022-08-06T14:20:24.115Z,0.75
2022-08-06T14:22:56.629Z,0.40
2022-08-06T14:25:28.719Z,0.60
2022-08-06T14:28:18.239Z,0.50
2022-08-06T14:30:52.312Z,0.57
2022-08-06T14:33:36.350Z,0.80
2022-08-06T14:36:08.008Z,0.68
2022-08-06T14:38:39.824Z,0.88
2022-08-06T14:41:51.077Z,0.70
2022-08-06T14:44:40.493Z,0.40
2022-08-06T14:47:19.971Z,0.30
2022-08-06T14:50:02.068Z,0.50
2022-08-06T14:52:36.036Z,0.57
2022-08-06T14:55:06.877Z,0.80
2022-08-06T14:58:03.455Z,0.60
2022-08-06T15:00:36.930Z,0.50
2022-08-06T15:03:13.930Z,0.73
2022-08-06T15:06:04.527Z,0.77
2022-08-06T15:08:37.346Z,0.40
2022-08-06T15:11:19.171Z,0.70
2022-08-06T15:13:51.465Z,0.60
2022-08-06T15:16:47.970Z,0.63
2022-08-06T15:19:15.586Z,0.50
2022-08-06T15:21:54.983Z,0.90
2022-08-06T15:24:25.837Z,0.88
2022-08-06T15:26:56.154Z,0.50
2022-08-06T15:29:26.400Z,1.50
2022-08-06T15:32:01.939Z,2.17
2022-08-06T15:34:39.080Z,3.50
2022-08-06T15:40:06.063Z,1.30
2022-08-06T15:42:38.256Z,1.10
2022-08-06T15:45:45.297Z,1.20
2022-08-06T15:48:07.038Z,1.60
2022-08-06T15:50:43.167Z,1.00
2022-08-06T15:53:23.793Z,0.90
2022-08-06T15:55:54.180Z,0.70
2022-08-06T15:58:30.435Z,0.75
2022-08-06T16:01:05.314Z,0.75
2022-08-06T16:03:56.929Z,0.50
2022-08-06T16:06:28.636Z,0.80
2022-08-06T16:08:59.953Z,0.50
2022-08-06T16:11:48.255Z,0.40
2022-08-06T16:14:33.486Z,0.40
2022-08-06T16:17:09.901Z,0.55
2022-08-06T16:19:49.392Z,0.30
2022-08-06T16:22:20.564Z,0.52
2022-08-06T16:24:52.053Z,0.60
2022-08-06T16:27:22.719Z,0.77
2022-08-06T16:30:05.011Z,0.50
2022-08-06T16:32:35.972Z,0.40
2022-08-06T16:35:06.789Z,0.50
2022-08-06T16:37:39.595Z,0.47
2022-08-06T16:40:10.845Z,0.70
2022-08-06T16:42:41.711Z,0.50
2022-08-06T16:45:15.368Z,0.55
2022-08-06T16:48:21.804Z,0.50
2022-08-06T16:50:38.514Z,0.70
2022-08-06T16:54:08.632Z,0.50
2022-08-06T16:56:02.237Z,0.40
2022-08-06T16:58:33.155Z,0.57
2022-08-06T17:02:14.863Z,0.70
2022-08-06T17:04:00.031Z,0.88
2022-08-06T17:06:35.056Z,0.63
2022-08-06T17:09:17.105Z,0.60
2022-08-06T17:11:58.146Z,0.73
2022-08-06T17:14:32.656Z,1.13
2022-08-06T17:17:06.867Z,0.50
2022-08-06T17:19:41.710Z,0.40
2022-08-06T17:22:13.035Z,0.57
2022-08-06T17:24:45.110Z,0.50
2022-08-06T17:27:16.425Z,0.75
2022-08-06T17:36:38.098Z,0.90
2022-08-06T17:38:20.471Z,0.57
2022-08-06T17:40:50.686Z,0.60
2022-08-06T17:43:22.325Z,0.95
2022-08-06T17:46:02.663Z,0.60
2022-08-06T17:48:43.789Z,0.60
2022-08-06T17:51:20.966Z,0.88
2022-08-06T17:53:55.160Z,0.68
2022-08-06T17:56:29.574Z,0.55
2022-08-06T17:59:17.040Z,0.60
2022-08-06T18:01:50.481Z,0.63
2022-08-06T18:04:33.428Z,0.70
2022-08-06T18:07:12.337Z,0.63
2022-08-06T18:10:16.456Z,0.80
2022-08-06T18:12:49.170Z,0.60
2022-08-06T18:15:21.166Z,1.00
2022-08-06T18:18:04.348Z,0.90
2022-08-06T18:20:41.859Z,0.98
2022-08-06T18:23:20.782Z,0.95
2022-08-06T18:25:56.889Z,1.00
2022-08-06T18:28:36.528Z,0.90
2022-08-06T18:31:10.769Z,0.70
2022-08-06T18:33:42.769Z,0.60
2022-08-06T18:36:16.676Z,0.85
2022-08-06T18:38:47.848Z,1.10
2022-08-06T18:41:19.362Z,1.58
2022-08-06T18:43:58.035Z,1.42
2022-08-06T18:46:56.089Z,1.73
2022-08-06T18:49:32.489Z,1.30
2022-08-06T18:52:24.297Z,1.33
2022-08-06T18:54:59.009Z,1.08
2022-08-06T18:57:38.260Z,0.90
2022-08-06T19:00:23.889Z,0.82
2022-08-06T19:03:10.637Z,0.57
2022-08-06T19:05:44.843Z,0.82
2022-08-06T19:08:29.286Z,1.05
2022-08-06T19:11:00.885Z,1.30
2022-08-06T19:14:02.160Z,1.20
2022-08-06T19:16:29.913Z,1.40
2022-08-06T19:19:00.202Z,1.40
2022-08-06T19:21:30.528Z,1.23
2022-08-06T19:24:03.604Z,1.27
2022-08-06T19:26:37.075Z,1.20
2022-08-06T19:29:08.857Z,1.35
2022-08-06T19:31:55.536Z,1.63
2022-08-06T19:34:25.791Z,1.40
2022-08-06T19:37:02.904Z,1.80
2022-08-06T19:39:57.502Z,1.45
2022-08-06T19:42:32.718Z,1.65
2022-08-06T19:45:16.629Z,1.60
2022-08-06T19:47:49.257Z,1.85
2022-08-06T19:50:19.828Z,1.63
2022-08-06T19:52:50.280Z,1.23
2022-08-06T19:56:08.334Z,1.20
2022-08-06T19:58:26.370Z,1.20
2022-08-06T20:01:31.949Z,1.20
2022-08-06T20:03:59.342Z,1.02
2022-08-06T20:07:01.169Z,0.90
2022-08-06T20:09:26.839Z,1.10
2022-08-06T20:12:05.000Z,0.95
2022-08-06T20:14:37.542Z,1.02
2022-08-06T20:17:07.730Z,1.00
2022-08-06T20:20:06.317Z,1.00
2022-08-06T20:22:29.375Z,1.17
2022-08-06T20:24:59.611Z,0.82
2022-08-06T20:27:38.645Z,0.95
2022-08-06T20:30:20.180Z,0.80
2022-08-06T20:32:53.918Z,0.82
2022-08-06T20:35:27.070Z,0.95
2022-08-06T20:41:57.286Z,0.50
2022-08-06T20:44:05.618Z,0.80
2022-08-06T20:46:22.242Z,0.60
2022-08-06T20:48:52.849Z,0.80
2022-08-06T20:51:26.828Z,0.75
2022-08-06T20:54:17.170Z,0.60
2022-08-06T20:56:49.387Z,0.60
2022-08-06T20:59:20.822Z,0.70
2022-08-06T21:01:57.887Z,0.60
2022-08-06T21:05:14.769Z,0.80
2022-08-06T21:07:36.807Z,0.60
2022-08-06T21:10:11.698Z,0.50
2022-08-06T21:12:44.877Z,0.80
2022-08-06T21:15:53.903Z,0.80
2022-08-06T21:18:23.992Z,0.65
2022-08-06T21:20:58.723Z,1.25
2022-08-06T21:23:55.143Z,0.70
2022-08-06T21:26:25.061Z,0.70
2022-08-06T21:28:55.865Z,0.60
2022-08-06T21:31:27.269Z,0.88
2022-08-06T21:33:57.941Z,0.85
2022-08-06T21:36:29.105Z,0.90
2022-08-06T21:39:00.018Z,0.60
2022-08-06T21:41:55.739Z,0.63
2022-08-06T21:44:27.410Z,0.50
2022-08-06T21:47:00.156Z,0.60
2022-08-06T21:49:58.628Z,0.93
2022-08-06T21:52:28.182Z,0.60
2022-08-06T21:56:35.275Z,1.10
2022-08-06T21:58:02.893Z,1.00
2022-08-06T22:00:40.132Z,1.05
2022-08-06T22:04:37.379Z,1.50
2022-08-06T22:06:22.387Z,8.73
2022-08-06T22:08:59.230Z,5.22
2022-08-06T22:12:38.506Z,3.03
2022-08-06T22:14:28.693Z,1.75
2022-08-06T22:17:06.101Z,1.48
2022-08-06T22:19:39.647Z,1.33
2022-08-06T22:22:13.468Z,1.20
2022-08-06T22:24:51.326Z,1.08
2022-08-06T22:27:22.237Z,1.30
2022-08-06T22:30:10.807Z,1.00
2022-08-06T22:32:47.993Z,1.60
2022-08-06T22:35:22.873Z,1.58
2022-08-06T22:38:16.247Z,1.95
2022-08-06T22:40:50.808Z,1.52
2022-08-06T22:43:30.025Z,1.80
2022-08-06T22:46:13.689Z,1.65
2022-08-06T22:48:47.407Z,1.30
2022-08-06T22:51:28.860Z,1.60
2022-08-06T22:54:29.740Z,1.67
2022-08-06T22:57:04.317Z,1.67
2022-08-06T23:00:11.980Z,1.60
2022-08-06T23:02:26.741Z,1.85
2022-08-06T23:04:56.959Z,1.90
2022-08-06T23:07:27.445Z,1.42
2022-08-06T23:10:14.425Z,1.60
2022-08-06T23:12:47.290Z,1.45
2022-08-06T23:15:30.046Z,1.20
2022-08-06T23:18:09.960Z,1.50
2022-08-06T23:20:41.397Z,1.73
2022-08-06T23:23:13.040Z,1.20
2022-08-06T23:25:59.278Z,1.48
2022-08-06T23:28:33.008Z,1.25
2022-08-06T23:31:03.220Z,1.20
2022-08-06T23:33:38.479Z,1.83
2022-08-06T23:36:14.814Z,1.13
2022-08-06T23:38:50.794Z,1.27
2022-08-06T23:41:24.511Z,1.13
2022-08-06T23:44:18.374Z,1.23
2022-08-06T23:46:51.149Z,1.10
2022-08-06T23:49:30.893Z,1.60
2022-08-06T23:52:04.240Z,1.35
2022-08-06T23:54:46.125Z,1.83
2022-08-06T23:57:32.486Z,1.45
